sensor_id;sensor_type;location;lat;lon;timestamp;P1;durP1;ratioP1;P2;durP2;ratioP2
1308;SDS011;647;48.840;9.314;2022-08-07T00:01:23;59.40;;;3.87;;
1308;SDS011;647;48.840;9.314;2022-08-07T00:03:50;59.10;;;3.57;;
1308;SDS011;647;48.840;9.314;2022-08-07T00:06:17;59.20;;;3.60;;
1308;SDS011;647;48.840;9.314;2022-08-07T00:08:45;59.30;;;3.87;;
1308;SDS011;647;48.840;9.314;2022-08-07T00:11:12;60.17;;;4.70;;
1308;SDS011;647;48.840;9.314;2022-08-07T00:13:39;59.20;;;3.53;;
1308;SDS011;647;48.840;9.314;2022-08-07T00:16:10;59.90;;;4.00;;
1308;SDS011;647;48.840;9.314;2022-08-07T00:18:37;60.10;;;4.10;;
1308;SDS011;647;48.840;9.314;2022-08-07T00:21:05;60.10;;;4.20;;
1308;SDS011;647;48.840;9.314;2022-08-07T00:23:33;59.80;;;3.77;;
1308;SDS011;647;48.840;9.314;2022-08-07T00:26:02;59.77;;;3.80;;
1308;SDS011;647;48.840;9.314;2022-08-07T00:28:29;62.97;;;4.30;;
1308;SDS011;647;48.840;9.314;2022-08-07T00:30:57;59.30;;;4.50;;
1308;SDS011;647;48.840;9.314;2022-08-07T00:33:25;60.17;;;3.57;;
1308;SDS011;647;48.840;9.314;2022-08-07T00:35:52;59.17;;;3.30;;
1308;SDS011;647;48.840;9.314;2022-08-07T00:38:20;60.90;;;4.63;;
1308;SDS011;647;48.840;9.314;2022-08-07T00:40:47;59.60;;;3.67;;
1308;SDS011;647;48.840;9.314;2022-08-07T00:43:14;60.77;;;3.93;;
1308;SDS011;647;48.840;9.314;2022-08-07T00:45:42;59.40;;;3.70;;
1308;SDS011;647;48.840;9.314;2022-08-07T00:48:09;62.20;;;5.00;;
1308;SDS011;647;48.840;9.314;2022-08-07T00:50:38;59.90;;;4.00;;
1308;SDS011;647;48.840;9.314;2022-08-07T00:53:05;59.50;;;3.70;;
1308;SDS011;647;48.840;9.314;2022-08-07T00:55:32;60.63;;;4.47;;
1308;SDS011;647;48.840;9.314;2022-08-07T00:57:59;59.10;;;3.50;;
1308;SDS011;647;48.840;9.314;2022-08-07T01:00:27;60.60;;;4.43;;
1308;SDS011;647;48.840;9.314;2022-08-07T01:02:54;59.30;;;4.17;;
1308;SDS011;647;48.840;9.314;2022-08-07T01:05:21;60.13;;;4.40;;
1308;SDS011;647;48.840;9.314;2022-08-07T01:07:50;60.17;;;4.57;;
1308;SDS011;647;48.840;9.314;2022-08-07T01:10:17;61.17;;;4.43;;
1308;SDS011;647;48.840;9.314;2022-08-07T01:12:44;60.00;;;4.07;;
1308;SDS011;647;48.840;9.314;2022-08-07T01:15:12;60.50;;;3.90;;
1308;SDS011;647;48.840;9.314;2022-08-07T01:17:39;59.27;;;3.60;;
1308;SDS011;647;48.840;9.314;2022-08-07T01:20:07;59.87;;;4.00;;
1308;SDS011;647;48.840;9.314;2022-08-07T01:22:36;59.77;;;4.60;;
1308;SDS011;647;48.840;9.314;2022-08-07T01:25:04;59.10;;;3.80;;
1308;SDS011;647;48.840;9.314;2022-08-07T01:27:32;60.17;;;4.00;;
1308;SDS011;647;48.840;9.314;2022-08-07T01:29:59;58.80;;;3.70;;
1308;SDS011;647;48.840;9.314;2022-08-07T01:32:27;62.80;;;4.20;;
1308;SDS011;647;48.840;9.314;2022-08-07T01:34:54;60.40;;;4.30;;
1308;SDS011;647;48.840;9.314;2022-08-07T01:37:22;60.03;;;4.23;;
1308;SDS011;647;48.840;9.314;2022-08-07T01:39:50;59.93;;;3.93;;
1308;SDS011;647;48.840;9.314;2022-08-07T01:42:18;59.67;;;4.00;;
1308;SDS011;647;48.840;9.314;2022-08-07T01:44:45;59.97;;;3.90;;
1308;SDS011;647;48.840;9.314;2022-08-07T01:47:13;60.07;;;3.70;;
1308;SDS011;647;48.840;9.314;2022-08-07T01:49:40;60.47;;;4.17;;
1308;SDS011;647;48.840;9.314;2022-08-07T01:52:07;59.60;;;4.53;;
1308;SDS011;647;48.840;9.314;2022-08-07T01:54:37;61.60;;;3.70;;
1308;SDS011;647;48.840;9.314;2022-08-07T01:57:07;59.77;;;4.17;;
1308;SDS011;647;48.840;9.314;2022-08-07T01:59:51;59.30;;;3.70;;
1308;SDS011;647;48.840;9.314;2022-08-07T02:02:21;59.97;;;4.30;;
1308;SDS011;647;48.840;9.314;2022-08-07T02:04:52;59.30;;;3.60;;
1308;SDS011;647;48.840;9.314;2022-08-07T02:07:21;59.57;;;3.77;;
1308;SDS011;647;48.840;9.314;2022-08-07T02:09:50;63.00;;;4.10;;
1308;SDS011;647;48.840;9.314;2022-08-07T02:12:19;61.73;;;3.60;;
1308;SDS011;647;48.840;9.314;2022-08-07T02:14:49;59.67;;;3.73;;
1308;SDS011;647;48.840;9.314;2022-08-07T02:17:17;61.70;;;3.87;;
1308;SDS011;647;48.840;9.314;2022-08-07T02:19:44;59.83;;;3.93;;
1308;SDS011;647;48.840;9.314;2022-08-07T02:22:12;60.17;;;3.93;;
1308;SDS011;647;48.840;9.314;2022-08-07T02:24:40;59.70;;;4.00;;
1308;SDS011;647;48.840;9.314;2022-08-07T02:27:09;59.00;;;3.90;;
1308;SDS011;647;48.840;9.314;2022-08-07T02:29:38;59.10;;;3.40;;
1308;SDS011;647;48.840;9.314;2022-08-07T02:32:05;59.17;;;3.73;;
1308;SDS011;647;48.840;9.314;2022-08-07T02:34:34;60.13;;;4.00;;
1308;SDS011;647;48.840;9.314;2022-08-07T02:37:02;60.00;;;3.80;;
1308;SDS011;647;48.840;9.314;2022-08-07T02:39:32;60.37;;;4.43;;
1308;SDS011;647;48.840;9.314;2022-08-07T02:42:00;60.27;;;3.80;;
1308;SDS011;647;48.840;9.314;2022-08-07T02:44:27;59.57;;;3.90;;
1308;SDS011;647;48.840;9.314;2022-08-07T02:46:57;58.67;;;3.40;;
1308;SDS011;647;48.840;9.314;2022-08-07T02:49:25;58.97;;;3.10;;
1308;SDS011;647;48.840;9.314;2022-08-07T02:51:54;60.50;;;3.80;;
1308;SDS011;647;48.840;9.314;2022-08-07T02:54:22;60.07;;;4.23;;
1308;SDS011;647;48.840;9.314;2022-08-07T02:56:49;59.20;;;3.70;;
1308;SDS011;647;48.840;9.314;2022-08-07T02:59:18;59.70;;;3.60;;
1308;SDS011;647;48.840;9.314;2022-08-07T03:01:46;62.20;;;4.20;;
1308;SDS011;647;48.840;9.314;2022-08-07T03:04:15;59.50;;;4.07;;
1308;SDS011;647;48.840;9.314;2022-08-07T03:06:42;59.27;;;3.63;;
1308;SDS011;647;48.840;9.314;2022-08-07T03:09:10;59.50;;;3.93;;
1308;SDS011;647;48.840;9.314;2022-08-07T03:11:37;68.83;;;4.87;;
1308;SDS011;647;48.840;9.314;2022-08-07T03:14:05;61.00;;;4.60;;
1308;SDS011;647;48.840;9.314;2022-08-07T03:16:32;59.27;;;3.27;;
1308;SDS011;647;48.840;9.314;2022-08-07T03:19:00;60.00;;;3.90;;
1308;SDS011;647;48.840;9.314;2022-08-07T03:21:29;59.60;;;3.60;;
1308;SDS011;647;48.840;9.314;2022-08-07T03:23:56;59.40;;;3.73;;
1308;SDS011;647;48.840;9.314;2022-08-07T03:26:24;59.37;;;3.80;;
1308;SDS011;647;48.840;9.314;2022-08-07T03:28:52;61.53;;;4.03;;
1308;SDS011;647;48.840;9.314;2022-08-07T03:31:20;59.70;;;3.50;;
1308;SDS011;647;48.840;9.314;2022-08-07T03:33:47;59.30;;;3.80;;
1308;SDS011;647;48.840;9.314;2022-08-07T03:36:15;59.17;;;3.77;;
1308;SDS011;647;48.840;9.314;2022-08-07T03:38:45;61.90;;;3.80;;
1308;SDS011;647;48.840;9.314;2022-08-07T03:41:13;59.20;;;3.63;;
1308;SDS011;647;48.840;9.314;2022-08-07T03:43:40;60.50;;;4.30;;
1308;SDS011;647;48.840;9.314;2022-08-07T03:46:09;59.67;;;3.93;;
1308;SDS011;647;48.840;9.314;2022-08-07T03:48:36;59.20;;;3.87;;
1308;SDS011;647;48.840;9.314;2022-08-07T03:51:04;62.10;;;4.33;;
1308;SDS011;647;48.840;9.314;2022-08-07T03:53:32;58.87;;;3.73;;
1308;SDS011;647;48.840;9.314;2022-08-07T03:56:01;58.97;;;3.47;;
1308;SDS011;647;48.840;9.314;2022-08-07T03:58:28;59.77;;;4.00;;
1308;SDS011;647;48.840;9.314;2022-08-07T04:00:56;59.70;;;4.20;;
1308;SDS011;647;48.840;9.314;2022-08-07T04:03:23;59.70;;;4.00;;
1308;SDS011;647;48.840;9.314;2022-08-07T04:05:50;59.17;;;3.60;;
1308;SDS011;647;48.840;9.314;2022-08-07T04:08:18;59.90;;;3.93;;
1308;SDS011;647;48.840;9.314;2022-08-07T04:10:45;59.70;;;4.27;;
1308;SDS011;647;48.840;9.314;2022-08-07T04:13:14;59.87;;;4.00;;
1308;SDS011;647;48.840;9.314;2022-08-07T04:15:41;58.87;;;4.00;;
1308;SDS011;647;48.840;9.314;2022-08-07T04:18:10;60.33;;;3.90;;
1308;SDS011;647;48.840;9.314;2022-08-07T04:20:38;59.37;;;3.90;;
1308;SDS011;647;48.840;9.314;2022-08-07T04:23:05;61.00;;;4.43;;
1308;SDS011;647;48.840;9.314;2022-08-07T04:25:32;60.17;;;3.60;;
1308;SDS011;647;48.840;9.314;2022-08-07T04:28:02;59.77;;;4.20;;
1308;SDS011;647;48.840;9.314;2022-08-07T04:30:30;59.03;;;3.60;;
1308;SDS011;647;48.840;9.314;2022-08-07T04:32:58;59.50;;;3.90;;
1308;SDS011;647;48.840;9.314;2022-08-07T04:35:25;59.60;;;4.70;;
1308;SDS011;647;48.840;9.314;2022-08-07T04:37:53;59.40;;;4.03;;
1308;SDS011;647;48.840;9.314;2022-08-07T04:40:20;62.13;;;4.10;;
1308;SDS011;647;48.840;9.314;2022-08-07T04:42:47;59.40;;;4.10;;
1308;SDS011;647;48.840;9.314;2022-08-07T04:45:15;59.40;;;4.00;;
1308;SDS011;647;48.840;9.314;2022-08-07T04:47:51;59.27;;;3.40;;
1308;SDS011;647;48.840;9.314;2022-08-07T04:50:22;59.87;;;4.10;;
1308;SDS011;647;48.840;9.314;2022-08-07T04:52:55;60.10;;;4.40;;
1308;SDS011;647;48.840;9.314;2022-08-07T04:55:27;59.40;;;3.50;;
1308;SDS011;647;48.840;9.314;2022-08-07T04:57:57;59.20;;;3.90;;
1308;SDS011;647;48.840;9.314;2022-08-07T05:00:28;60.13;;;4.37;;
1308;SDS011;647;48.840;9.314;2022-08-07T05:03:03;59.20;;;4.07;;
1308;SDS011;647;48.840;9.314;2022-08-07T05:05:33;58.53;;;3.40;;
1308;SDS011;647;48.840;9.314;2022-08-07T05:08:02;59.60;;;4.00;;
1308;SDS011;647;48.840;9.314;2022-08-07T05:10:32;59.20;;;3.60;;
1308;SDS011;647;48.840;9.314;2022-08-07T05:13:02;58.90;;;3.50;;
1308;SDS011;647;48.840;9.314;2022-08-07T05:15:33;60.20;;;4.27;;
1308;SDS011;647;48.840;9.314;2022-08-07T05:18:04;58.90;;;3.50;;
1308;SDS011;647;48.840;9.314;2022-08-07T05:20:33;61.00;;;3.73;;
1308;SDS011;647;48.840;9.314;2022-08-07T05:23:03;58.87;;;3.50;;
1308;SDS011;647;48.840;9.314;2022-08-07T05:25:32;61.53;;;4.33;;
1308;SDS011;647;48.840;9.314;2022-08-07T05:27:59;58.83;;;3.13;;
1308;SDS011;647;48.840;9.314;2022-08-07T05:30:27;59.20;;;3.60;;
1308;SDS011;647;48.840;9.314;2022-08-07T05:32:54;59.77;;;3.67;;
1308;SDS011;647;48.840;9.314;2022-08-07T05:35:24;59.10;;;3.40;;
1308;SDS011;647;48.840;9.314;2022-08-07T05:37:51;58.90;;;3.30;;
1308;SDS011;647;48.840;9.314;2022-08-07T05:40:19;59.10;;;3.60;;
1308;SDS011;647;48.840;9.314;2022-08-07T05:42:46;59.00;;;3.73;;
1308;SDS011;647;48.840;9.314;2022-08-07T05:45:13;59.33;;;3.73;;
1308;SDS011;647;48.840;9.314;2022-08-07T05:47:41;59.10;;;3.60;;
1308;SDS011;647;48.840;9.314;2022-08-07T05:50:09;59.17;;;3.70;;
1308;SDS011;647;48.840;9.314;2022-08-07T05:52:37;59.47;;;3.43;;
1308;SDS011;647;48.840;9.314;2022-08-07T05:55:05;58.83;;;3.50;;
1308;SDS011;647;48.840;9.314;2022-08-07T05:57:33;60.17;;;3.33;;
1308;SDS011;647;48.840;9.314;2022-08-07T06:00:01;58.83;;;3.50;;
1308;SDS011;647;48.840;9.314;2022-08-07T06:02:30;58.67;;;3.37;;
1308;SDS011;647;48.840;9.314;2022-08-07T06:05:00;60.83;;;3.70;;
1308;SDS011;647;48.840;9.314;2022-08-07T06:07:28;59.50;;;3.90;;
1308;SDS011;647;48.840;9.314;2022-08-07T06:09:57;58.77;;;3.10;;
1308;SDS011;647;48.840;9.314;2022-08-07T06:12:24;58.43;;;3.33;;
1308;SDS011;647;48.840;9.314;2022-08-07T06:14:51;60.00;;;4.40;;
1308;SDS011;647;48.840;9.314;2022-08-07T06:17:19;59.07;;;3.37;;
1308;SDS011;647;48.840;9.314;2022-08-07T06:19:46;58.90;;;3.33;;
1308;SDS011;647;48.840;9.314;2022-08-07T06:22:14;59.37;;;3.90;;
1308;SDS011;647;48.840;9.314;2022-08-07T06:24:42;59.93;;;4.00;;
1308;SDS011;647;48.840;9.314;2022-08-07T06:27:10;58.60;;;3.17;;
1308;SDS011;647;48.840;9.314;2022-08-07T06:29:45;59.00;;;3.30;;
1308;SDS011;647;48.840;9.314;2022-08-07T06:32:12;58.50;;;3.07;;
1308;SDS011;647;48.840;9.314;2022-08-07T06:34:39;59.10;;;3.30;;
1308;SDS011;647;48.840;9.314;2022-08-07T06:37:06;60.17;;;3.50;;
1308;SDS011;647;48.840;9.314;2022-08-07T06:39:33;58.80;;;3.60;;
1308;SDS011;647;48.840;9.314;2022-08-07T06:42:01;58.57;;;2.90;;
1308;SDS011;647;48.840;9.314;2022-08-07T06:44:31;58.67;;;3.60;;
1308;SDS011;647;48.840;9.314;2022-08-07T06:46:59;58.80;;;3.20;;
1308;SDS011;647;48.840;9.314;2022-08-07T06:49:26;58.50;;;3.10;;
1308;SDS011;647;48.840;9.314;2022-08-07T06:51:53;61.10;;;3.50;;
1308;SDS011;647;48.840;9.314;2022-08-07T06:54:21;58.90;;;3.40;;
1308;SDS011;647;48.840;9.314;2022-08-07T06:56:50;58.97;;;3.40;;
1308;SDS011;647;48.840;9.314;2022-08-07T06:59:19;59.97;;;3.77;;
1308;SDS011;647;48.840;9.314;2022-08-07T07:01:48;59.80;;;3.70;;
1308;SDS011;647;48.840;9.314;2022-08-07T07:04:16;58.77;;;3.40;;
1308;SDS011;647;48.840;9.314;2022-08-07T07:06:43;59.30;;;3.80;;
1308;SDS011;647;48.840;9.314;2022-08-07T07:09:17;59.90;;;5.17;;
1308;SDS011;647;48.840;9.314;2022-08-07T07:11:46;59.57;;;3.77;;
1308;SDS011;647;48.840;9.314;2022-08-07T07:14:14;59.17;;;3.43;;
1308;SDS011;647;48.840;9.314;2022-08-07T07:16:43;58.57;;;3.20;;
1308;SDS011;647;48.840;9.314;2022-08-07T07:19:12;59.27;;;4.03;;
1308;SDS011;647;48.840;9.314;2022-08-07T07:21:41;58.87;;;3.20;;
1308;SDS011;647;48.840;9.314;2022-08-07T07:24:08;59.10;;;3.57;;
1308;SDS011;647;48.840;9.314;2022-08-07T07:26:35;58.80;;;3.20;;
1308;SDS011;647;48.840;9.314;2022-08-07T07:29:04;59.07;;;3.50;;
1308;SDS011;647;48.840;9.314;2022-08-07T07:31:33;59.07;;;3.33;;
1308;SDS011;647;48.840;9.314;2022-08-07T07:34:04;58.60;;;3.23;;
1308;SDS011;647;48.840;9.314;2022-08-07T07:36:33;58.70;;;3.07;;
1308;SDS011;647;48.840;9.314;2022-08-07T07:39:02;72.37;;;4.00;;
1308;SDS011;647;48.840;9.314;2022-08-07T07:41:30;59.10;;;2.90;;
1308;SDS011;647;48.840;9.314;2022-08-07T07:43:58;58.60;;;3.00;;
1308;SDS011;647;48.840;9.314;2022-08-07T07:46:26;60.10;;;3.37;;
1308;SDS011;647;48.840;9.314;2022-08-07T07:48:54;58.27;;;2.80;;
1308;SDS011;647;48.840;9.314;2022-08-07T07:51:22;58.43;;;2.90;;
1308;SDS011;647;48.840;9.314;2022-08-07T07:53:51;59.63;;;4.00;;
1308;SDS011;647;48.840;9.314;2022-08-07T07:56:19;58.13;;;2.87;;
1308;SDS011;647;48.840;9.314;2022-08-07T07:58:49;58.70;;;3.20;;
1308;SDS011;647;48.840;9.314;2022-08-07T08:01:16;58.37;;;2.80;;
1308;SDS011;647;48.840;9.314;2022-08-07T08:03:45;58.40;;;3.03;;
1308;SDS011;647;48.840;9.314;2022-08-07T08:06:12;58.60;;;3.23;;
1308;SDS011;647;48.840;9.314;2022-08-07T08:08:40;58.17;;;2.90;;
1308;SDS011;647;48.840;9.314;2022-08-07T08:11:10;58.60;;;2.90;;
1308;SDS011;647;48.840;9.314;2022-08-07T08:13:38;58.10;;;2.47;;
1308;SDS011;647;48.840;9.314;2022-08-07T08:16:06;58.20;;;2.97;;
1308;SDS011;647;48.840;9.314;2022-08-07T08:18:34;58.27;;;2.70;;
1308;SDS011;647;48.840;9.314;2022-08-07T08:21:02;58.33;;;2.80;;
1308;SDS011;647;48.840;9.314;2022-08-07T08:23:29;58.43;;;2.87;;
1308;SDS011;647;48.840;9.314;2022-08-07T08:26:18;58.67;;;3.00;;
1308;SDS011;647;48.840;9.314;2022-08-07T08:29:03;58.27;;;3.00;;
1308;SDS011;647;48.840;9.314;2022-08-07T08:31:32;58.27;;;2.50;;
1308;SDS011;647;48.840;9.314;2022-08-07T08:34:00;58.60;;;2.70;;
1308;SDS011;647;48.840;9.314;2022-08-07T08:36:29;58.20;;;2.50;;
1308;SDS011;647;48.840;9.314;2022-08-07T08:38:58;58.40;;;2.73;;
1308;SDS011;647;48.840;9.314;2022-08-07T08:41:28;58.50;;;2.90;;
1308;SDS011;647;48.840;9.314;2022-08-07T08:43:59;58.20;;;2.70;;
1308;SDS011;647;48.840;9.314;2022-08-07T08:46:31;60.30;;;2.67;;
1308;SDS011;647;48.840;9.314;2022-08-07T08:49:11;58.27;;;2.73;;
1308;SDS011;647;48.840;9.314;2022-08-07T08:51:40;58.60;;;2.90;;
1308;SDS011;647;48.840;9.314;2022-08-07T08:54:09;58.37;;;2.70;;
1308;SDS011;647;48.840;9.314;2022-08-07T08:56:43;58.17;;;2.70;;
1308;SDS011;647;48.840;9.314;2022-08-07T08:59:12;57.63;;;2.60;;
1308;SDS011;647;48.840;9.314;2022-08-07T09:01:42;64.60;;;2.60;;
1308;SDS011;647;48.840;9.314;2022-08-07T09:04:13;58.17;;;2.77;;
1308;SDS011;647;48.840;9.314;2022-08-07T09:06:43;58.80;;;2.97;;
1308;SDS011;647;48.840;9.314;2022-08-07T09:09:17;58.17;;;2.80;;
1308;SDS011;647;48.840;9.314;2022-08-07T09:11:48;58.27;;;2.50;;
1308;SDS011;647;48.840;9.314;2022-08-07T09:14:18;58.10;;;2.27;;
1308;SDS011;647;48.840;9.314;2022-08-07T09:16:53;60.33;;;2.90;;
1308;SDS011;647;48.840;9.314;2022-08-07T09:19:24;58.17;;;2.70;;
1308;SDS011;647;48.840;9.314;2022-08-07T09:21:57;57.87;;;2.27;;
1308;SDS011;647;48.840;9.314;2022-08-07T09:24:33;58.13;;;2.40;;
1308;SDS011;647;48.840;9.314;2022-08-07T09:27:11;59.17;;;2.90;;
1308;SDS011;647;48.840;9.314;2022-08-07T09:29:45;58.57;;;2.73;;
1308;SDS011;647;48.840;9.314;2022-08-07T09:32:20;58.17;;;2.37;;
1308;SDS011;647;48.840;9.314;2022-08-07T09:34:53;58.10;;;2.40;;
1308;SDS011;647;48.840;9.314;2022-08-07T09:37:26;58.20;;;2.30;;
1308;SDS011;647;48.840;9.314;2022-08-07T09:39:56;57.97;;;2.50;;
1308;SDS011;647;48.840;9.314;2022-08-07T09:42:39;58.20;;;2.50;;
1308;SDS011;647;48.840;9.314;2022-08-07T09:45:10;58.07;;;2.30;;
1308;SDS011;647;48.840;9.314;2022-08-07T09:47:43;58.10;;;2.37;;
1308;SDS011;647;48.840;9.314;2022-08-07T09:50:13;57.77;;;2.33;;
1308;SDS011;647;48.840;9.314;2022-08-07T09:52:45;60.00;;;2.37;;
1308;SDS011;647;48.840;9.314;2022-08-07T09:55:14;58.10;;;2.30;;
1308;SDS011;647;48.840;9.314;2022-08-07T10:00:37;57.67;;;2.23;;
1308;SDS011;647;48.840;9.314;2022-08-07T10:08:49;57.80;;;2.00;;
1308;SDS011;647;48.840;9.314;2022-08-07T10:11:27;57.90;;;2.10;;
1308;SDS011;647;48.840;9.314;2022-08-07T10:14:01;57.73;;;2.07;;
1308;SDS011;647;48.840;9.314;2022-08-07T10:16:40;57.83;;;2.30;;
1308;SDS011;647;48.840;9.314;2022-08-07T10:19:16;58.07;;;2.43;;
1308;SDS011;647;48.840;9.314;2022-08-07T10:21:47;60.60;;;4.70;;
1308;SDS011;647;48.840;9.314;2022-08-07T10:24:24;58.27;;;3.00;;
1308;SDS011;647;48.840;9.314;2022-08-07T10:27:00;57.67;;;2.63;;
1308;SDS011;647;48.840;9.314;2022-08-07T10:29:36;59.90;;;3.93;;
1308;SDS011;647;48.840;9.314;2022-08-07T10:32:13;58.70;;;3.83;;
1308;SDS011;647;48.840;9.314;2022-08-07T10:34:49;58.37;;;2.20;;
1308;SDS011;647;48.840;9.314;2022-08-07T10:37:25;58.00;;;2.83;;
1308;SDS011;647;48.840;9.314;2022-08-07T10:39:59;57.37;;;2.07;;
1308;SDS011;647;48.840;9.314;2022-08-07T10:42:31;57.07;;;2.00;;
1308;SDS011;647;48.840;9.314;2022-08-07T10:45:01;57.20;;;2.10;;
1308;SDS011;647;48.840;9.314;2022-08-07T10:47:32;57.07;;;2.03;;
1308;SDS011;647;48.840;9.314;2022-08-07T10:50:02;57.07;;;2.00;;
1308;SDS011;647;48.840;9.314;2022-08-07T10:52:32;56.73;;;1.80;;
1308;SDS011;647;48.840;9.314;2022-08-07T10:55:10;56.87;;;1.83;;
1308;SDS011;647;48.840;9.314;2022-08-07T10:57:38;56.87;;;1.80;;
1308;SDS011;647;48.840;9.314;2022-08-07T11:00:09;56.53;;;2.00;;
1308;SDS011;647;48.840;9.314;2022-08-07T11:02:41;57.00;;;2.73;;
1308;SDS011;647;48.840;9.314;2022-08-07T11:05:19;57.80;;;1.80;;
1308;SDS011;647;48.840;9.314;2022-08-07T11:07:55;56.47;;;1.83;;
1308;SDS011;647;48.840;9.314;2022-08-07T11:10:27;56.50;;;2.07;;
1308;SDS011;647;48.840;9.314;2022-08-07T11:12:57;56.87;;;2.00;;
1308;SDS011;647;48.840;9.314;2022-08-07T11:15:25;57.30;;;2.70;;
1308;SDS011;647;48.840;9.314;2022-08-07T11:17:58;57.37;;;2.50;;
1308;SDS011;647;48.840;9.314;2022-08-07T11:20:35;57.17;;;2.30;;
1308;SDS011;647;48.840;9.314;2022-08-07T11:23:06;59.50;;;2.03;;
1308;SDS011;647;48.840;9.314;2022-08-07T11:25:35;56.70;;;1.90;;
1308;SDS011;647;48.840;9.314;2022-08-07T11:28:05;56.97;;;1.80;;
1308;SDS011;647;48.840;9.314;2022-08-07T11:30:36;56.90;;;2.23;;
1308;SDS011;647;48.840;9.314;2022-08-07T11:33:10;58.27;;;1.80;;
1308;SDS011;647;48.840;9.314;2022-08-07T11:35:44;56.27;;;1.70;;
1308;SDS011;647;48.840;9.314;2022-08-07T11:38:13;57.00;;;1.80;;
1308;SDS011;647;48.840;9.314;2022-08-07T11:40:45;57.10;;;1.83;;
1308;SDS011;647;48.840;9.314;2022-08-07T11:43:17;56.47;;;1.90;;
1308;SDS011;647;48.840;9.314;2022-08-07T11:45:50;56.90;;;2.10;;
1308;SDS011;647;48.840;9.314;2022-08-07T11:48:25;56.67;;;1.87;;
1308;SDS011;647;48.840;9.314;2022-08-07T11:51:04;56.60;;;1.80;;
1308;SDS011;647;48.840;9.314;2022-08-07T11:53:38;56.77;;;1.90;;
1308;SDS011;647;48.840;9.314;2022-08-07T11:56:09;56.60;;;1.90;;
1308;SDS011;647;48.840;9.314;2022-08-07T11:58:43;56.37;;;1.70;;
1308;SDS011;647;48.840;9.314;2022-08-07T12:01:24;56.50;;;1.70;;
1308;SDS011;647;48.840;9.314;2022-08-07T12:04:16;56.77;;;1.87;;
1308;SDS011;647;48.840;9.314;2022-08-07T12:06:52;58.50;;;2.43;;
1308;SDS011;647;48.840;9.314;2022-08-07T12:09:21;56.47;;;1.77;;
1308;SDS011;647;48.840;9.314;2022-08-07T12:11:55;56.37;;;2.10;;
1308;SDS011;647;48.840;9.314;2022-08-07T12:14:25;58.20;;;2.00;;
1308;SDS011;647;48.840;9.314;2022-08-07T12:16:53;56.60;;;1.83;;
1308;SDS011;647;48.840;9.314;2022-08-07T12:19:26;56.77;;;1.80;;
1308;SDS011;647;48.840;9.314;2022-08-07T12:21:59;56.57;;;1.63;;
1308;SDS011;647;48.840;9.314;2022-08-07T12:24:31;56.77;;;2.20;;
1308;SDS011;647;48.840;9.314;2022-08-07T12:27:00;56.50;;;1.67;;
1308;SDS011;647;48.840;9.314;2022-08-07T12:29:30;58.40;;;1.90;;
1308;SDS011;647;48.840;9.314;2022-08-07T12:32:00;56.47;;;2.00;;
1308;SDS011;647;48.840;9.314;2022-08-07T12:34:32;56.70;;;2.03;;
1308;SDS011;647;48.840;9.314;2022-08-07T12:37:00;56.37;;;1.70;;
1308;SDS011;647;48.840;9.314;2022-08-07T12:39:27;56.50;;;1.70;;
1308;SDS011;647;48.840;9.314;2022-08-07T12:41:56;56.37;;;1.87;;
1308;SDS011;647;48.840;9.314;2022-08-07T12:44:24;56.50;;;1.90;;
1308;SDS011;647;48.840;9.314;2022-08-07T12:46:58;56.67;;;1.90;;
1308;SDS011;647;48.840;9.314;2022-08-07T12:49:34;56.67;;;2.00;;
1308;SDS011;647;48.840;9.314;2022-08-07T12:52:05;56.37;;;1.80;;
1308;SDS011;647;48.840;9.314;2022-08-07T12:54:34;56.40;;;1.87;;
1308;SDS011;647;48.840;9.314;2022-08-07T12:57:06;57.43;;;1.80;;
1308;SDS011;647;48.840;9.314;2022-08-07T12:59:33;56.67;;;1.90;;
1308;SDS011;647;48.840;9.314;2022-08-07T13:02:05;56.17;;;1.80;;
1308;SDS011;647;48.840;9.314;2022-08-07T13:04:47;56.17;;;1.90;;
1308;SDS011;647;48.840;9.314;2022-08-07T13:07:24;56.30;;;1.90;;
1308;SDS011;647;48.840;9.314;2022-08-07T13:10:09;56.47;;;1.90;;
1308;SDS011;647;48.840;9.314;2022-08-07T13:12:50;56.60;;;1.90;;
1308;SDS011;647;48.840;9.314;2022-08-07T13:15:22;56.27;;;1.60;;
1308;SDS011;647;48.840;9.314;2022-08-07T13:17:55;56.13;;;1.70;;
1308;SDS011;647;48.840;9.314;2022-08-07T13:20:29;56.67;;;1.83;;
1308;SDS011;647;48.840;9.314;2022-08-07T13:23:03;56.50;;;1.80;;
1308;SDS011;647;48.840;9.314;2022-08-07T13:25:33;56.50;;;1.70;;
1308;SDS011;647;48.840;9.314;2022-08-07T13:28:03;56.40;;;1.80;;
1308;SDS011;647;48.840;9.314;2022-08-07T13:30:32;56.37;;;1.67;;
1308;SDS011;647;48.840;9.314;2022-08-07T13:33:02;56.47;;;1.90;;
1308;SDS011;647;48.840;9.314;2022-08-07T13:35:40;56.50;;;1.80;;
1308;SDS011;647;48.840;9.314;2022-08-07T13:38:09;56.17;;;2.27;;
1308;SDS011;647;48.840;9.314;2022-08-07T13:40:42;57.40;;;2.27;;
1308;SDS011;647;48.840;9.314;2022-08-07T13:43:12;56.17;;;1.80;;
1308;SDS011;647;48.840;9.314;2022-08-07T13:45:41;57.00;;;2.10;;
1308;SDS011;647;48.840;9.314;2022-08-07T13:48:10;56.30;;;1.93;;
1308;SDS011;647;48.840;9.314;2022-08-07T13:50:40;56.37;;;2.10;;
1308;SDS011;647;48.840;9.314;2022-08-07T13:53:08;56.50;;;2.13;;
1308;SDS011;647;48.840;9.314;2022-08-07T13:55:35;56.03;;;2.07;;
1308;SDS011;647;48.840;9.314;2022-08-07T13:58:05;56.40;;;1.97;;
1308;SDS011;647;48.840;9.314;2022-08-07T14:00:46;56.47;;;2.00;;
1308;SDS011;647;48.840;9.314;2022-08-07T14:03:14;56.40;;;1.80;;
1308;SDS011;647;48.840;9.314;2022-08-07T14:05:43;60.07;;;2.00;;
1308;SDS011;647;48.840;9.314;2022-08-07T14:08:11;56.57;;;1.80;;
1308;SDS011;647;48.840;9.314;2022-08-07T14:10:38;56.90;;;2.00;;
1308;SDS011;647;48.840;9.314;2022-08-07T14:13:07;57.07;;;1.97;;
1308;SDS011;647;48.840;9.314;2022-08-07T14:15:37;56.60;;;1.80;;
1308;SDS011;647;48.840;9.314;2022-08-07T14:18:05;56.47;;;1.90;;
1308;SDS011;647;48.840;9.314;2022-08-07T14:20:34;56.57;;;2.03;;
1308;SDS011;647;48.840;9.314;2022-08-07T14:23:05;56.13;;;2.07;;
1308;SDS011;647;48.840;9.314;2022-08-07T14:25:33;56.27;;;2.00;;
1308;SDS011;647;48.840;9.314;2022-08-07T14:28:02;57.00;;;2.13;;
1308;SDS011;647;48.840;9.314;2022-08-07T14:30:30;56.57;;;1.80;;
1308;SDS011;647;48.840;9.314;2022-08-07T14:32:58;56.60;;;2.20;;
1308;SDS011;647;48.840;9.314;2022-08-07T14:35:27;56.70;;;2.10;;
1308;SDS011;647;48.840;9.314;2022-08-07T14:37:55;56.13;;;2.10;;
1308;SDS011;647;48.840;9.314;2022-08-07T14:40:25;57.00;;;2.00;;
1308;SDS011;647;48.840;9.314;2022-08-07T14:42:54;56.13;;;1.90;;
1308;SDS011;647;48.840;9.314;2022-08-07T14:45:26;56.67;;;1.80;;
1308;SDS011;647;48.840;9.314;2022-08-07T14:47:54;56.97;;;2.03;;
1308;SDS011;647;48.840;9.314;2022-08-07T14:50:22;56.70;;;1.80;;
1308;SDS011;647;48.840;9.314;2022-08-07T14:52:50;56.67;;;1.87;;
1308;SDS011;647;48.840;9.314;2022-08-07T14:55:18;59.10;;;2.30;;
1308;SDS011;647;48.840;9.314;2022-08-07T14:57:48;56.77;;;1.80;;
1308;SDS011;647;48.840;9.314;2022-08-07T15:00:16;57.00;;;2.00;;
1308;SDS011;647;48.840;9.314;2022-08-07T15:02:45;56.90;;;2.17;;
1308;SDS011;647;48.840;9.314;2022-08-07T15:05:16;57.00;;;2.17;;
1308;SDS011;647;48.840;9.314;2022-08-07T15:07:44;57.00;;;1.90;;
1308;SDS011;647;48.840;9.314;2022-08-07T15:10:16;56.93;;;2.20;;
1308;SDS011;647;48.840;9.314;2022-08-07T15:12:43;56.87;;;2.20;;
1308;SDS011;647;48.840;9.314;2022-08-07T15:15:13;57.30;;;2.17;;
1308;SDS011;647;48.840;9.314;2022-08-07T15:17:43;57.70;;;2.23;;
1308;SDS011;647;48.840;9.314;2022-08-07T15:20:11;57.17;;;2.20;;
1308;SDS011;647;48.840;9.314;2022-08-07T15:22:43;57.40;;;2.20;;
1308;SDS011;647;48.840;9.314;2022-08-07T15:25:11;56.80;;;1.80;;
1308;SDS011;647;48.840;9.314;2022-08-07T15:27:39;56.90;;;1.93;;
1308;SDS011;647;48.840;9.314;2022-08-07T15:30:08;57.00;;;1.90;;
1308;SDS011;647;48.840;9.314;2022-08-07T15:32:40;57.00;;;2.03;;
1308;SDS011;647;48.840;9.314;2022-08-07T15:35:11;57.10;;;2.00;;
1308;SDS011;647;48.840;9.314;2022-08-07T15:37:39;56.77;;;1.87;;
1308;SDS011;647;48.840;9.314;2022-08-07T15:40:11;56.90;;;1.87;;